createdAt,value
2019-01-25T00:01:42.654Z,48.45
2019-01-25T00:04:09.563Z,48.17
2019-01-25T00:06:36.946Z,51.28
2019-01-25T00:09:08.167Z,46.08
2019-01-25T00:11:35.547Z,52.73
2019-01-25T00:14:02.991Z,53.15
2019-01-25T00:16:30.158Z,51.35
2019-01-25T00:18:58.455Z,50.12
2019-01-25T00:21:25.762Z,49.13
2019-01-25T00:23:53.310Z,52.10
2019-01-25T00:26:20.832Z,53.35
2019-01-25T00:28:48.081Z,52.35
2019-01-25T00:31:15.515Z,51.95
2019-01-25T00:33:42.682Z,47.15
2019-01-25T00:36:09.649Z,46.80
2019-01-25T00:38:43.331Z,45.35
2019-01-25T00:41:10.621Z,47.83
2019-01-25T00:43:37.766Z,45.43
2019-01-25T00:46:04.782Z,43.70
2019-01-25T00:48:32.150Z,45.75
2019-01-25T00:50:59.271Z,50.67
2019-01-25T00:53:26.319Z,46.80
2019-01-25T00:55:53.335Z,42.65
2019-01-25T00:58:20.736Z,49.18
2019-01-25T01:00:47.920Z,50.35
2019-01-25T01:03:15.429Z,48.33
2019-01-25T01:05:42.695Z,51.70
2019-01-25T01:08:09.588Z,47.83
2019-01-25T01:10:36.816Z,45.60
2019-01-25T01:13:04.226Z,51.13
2019-01-25T01:15:31.512Z,53.87
2019-01-25T01:17:59.110Z,50.35
2019-01-25T01:20:26.371Z,49.75
2019-01-25T01:22:53.970Z,53.30
2019-01-25T01:25:21.344Z,45.03
2019-01-25T01:27:48.591Z,49.95
2019-01-25T01:30:23.229Z,49.05
2019-01-25T01:32:51.359Z,47.88
2019-01-25T01:35:18.526Z,52.48
2019-01-25T01:37:45.910Z,50.88
2019-01-25T01:40:21.715Z,51.35
2019-01-25T01:42:45.213Z,52.88
2019-01-25T01:45:13.495Z,52.90
2019-01-25T01:47:40.648Z,50.78
2019-01-25T01:50:09.607Z,50.40
2019-01-25T01:52:37.319Z,54.48
2019-01-25T01:55:05.279Z,56.05
2019-01-25T01:57:32.364Z,49.03
2019-01-25T01:59:59.963Z,54.20
2019-01-25T02:02:28.143Z,53.85
2019-01-25T02:04:55.151Z,55.00
2019-01-25T02:07:22.289Z,54.90
2019-01-25T02:09:49.184Z,58.80
2019-01-25T02:12:16.586Z,59.40
2019-01-25T02:14:43.799Z,53.98
2019-01-25T02:17:10.811Z,57.20
2019-01-25T02:19:38.698Z,54.25
2019-01-25T02:22:05.942Z,52.43
2019-01-25T02:24:33.206Z,56.00
2019-01-25T02:27:00.559Z,53.70
2019-01-25T02:29:28.124Z,51.25
2019-01-25T02:31:55.535Z,55.60
2019-01-25T02:34:22.473Z,53.60
2019-01-25T02:36:49.926Z,55.75
2019-01-25T02:39:16.947Z,59.77
2019-01-25T02:41:44.173Z,58.15
2019-01-25T02:44:12.389Z,59.27
2019-01-25T02:46:39.912Z,61.83
2019-01-25T02:49:07.020Z,53.68
2019-01-25T02:51:34.304Z,58.58
2019-01-25T02:54:01.259Z,58.20
2019-01-25T02:56:28.611Z,56.08
2019-01-25T02:58:55.836Z,61.55
2019-01-25T03:01:23.123Z,57.58
2019-01-25T03:03:50.370Z,55.30
2019-01-25T03:06:17.363Z,56.18
2019-01-25T03:08:44.795Z,60.23
2019-01-25T03:11:12.039Z,60.90
2019-01-25T03:13:39.000Z,59.67
2019-01-25T03:16:06.325Z,58.38
2019-01-25T03:18:46.565Z,59.23
2019-01-25T03:21:14.014Z,62.48
2019-01-25T03:23:41.788Z,62.78
2019-01-25T03:26:09.597Z,60.08
2019-01-25T03:28:36.539Z,62.10
2019-01-25T03:31:03.665Z,60.52
2019-01-25T03:33:31.538Z,60.03
2019-01-25T03:35:59.035Z,64.25
2019-01-25T03:38:26.727Z,63.80
2019-01-25T03:40:55.595Z,58.80
2019-01-25T03:43:23.445Z,66.77
2019-01-25T03:45:50.707Z,59.38
2019-01-25T03:48:18.053Z,66.20
2019-01-25T03:50:45.151Z,61.25
2019-01-25T03:53:12.707Z,59.75
2019-01-25T03:55:39.966Z,57.78
2019-01-25T03:58:07.479Z,56.92
2019-01-25T04:00:34.958Z,61.20
2019-01-25T04:03:03.451Z,58.73
2019-01-25T04:05:30.981Z,54.75
2019-01-25T04:07:58.346Z,56.60
2019-01-25T04:10:27.441Z,57.03
2019-01-25T04:12:54.958Z,55.35
2019-01-25T04:15:27.478Z,57.70
2019-01-25T04:17:55.300Z,60.98
2019-01-25T04:20:23.686Z,60.30
2019-01-25T04:22:50.944Z,58.60
2019-01-25T04:25:19.355Z,57.53
2019-01-25T04:27:47.081Z,59.55
2019-01-25T04:30:19.339Z,56.68
2019-01-25T04:32:47.481Z,60.33
2019-01-25T04:35:15.039Z,59.83
2019-01-25T04:37:42.248Z,58.42
2019-01-25T04:40:12.246Z,60.48
2019-01-25T04:42:39.730Z,62.60
2019-01-25T04:45:08.556Z,63.10
2019-01-25T04:47:36.050Z,57.40
2019-01-25T04:50:05.654Z,55.80
2019-01-25T04:52:32.882Z,54.85
2019-01-25T04:55:06.648Z,59.00
2019-01-25T04:57:33.879Z,60.83
2019-01-25T05:00:01.145Z,56.68
2019-01-25T05:02:28.453Z,69.58
2019-01-25T05:04:55.703Z,67.72
2019-01-25T05:07:22.747Z,64.30
2019-01-25T05:09:50.308Z,56.75
2019-01-25T05:12:17.455Z,61.48
2019-01-25T05:14:44.754Z,60.52
2019-01-25T05:17:11.690Z,57.50
2019-01-25T05:19:39.780Z,59.42
2019-01-25T05:22:07.386Z,56.77
2019-01-25T05:24:35.066Z,57.73
2019-01-25T05:27:02.229Z,60.15
2019-01-25T05:29:54.791Z,58.58
2019-01-25T05:32:22.281Z,56.05
2019-01-25T05:34:49.563Z,59.88
2019-01-25T05:37:16.696Z,59.63
2019-01-25T05:39:44.513Z,59.20
2019-01-25T05:42:12.161Z,63.23
2019-01-25T05:44:39.524Z,58.23
2019-01-25T05:47:08.335Z,60.50
2019-01-25T05:49:35.281Z,60.28
2019-01-25T05:52:02.412Z,56.75
2019-01-25T05:54:30.185Z,59.90
2019-01-25T05:56:57.442Z,59.00
2019-01-25T05:59:24.899Z,62.25
2019-01-25T06:01:52.403Z,58.00
2019-01-25T06:04:19.881Z,62.05
2019-01-25T06:06:47.576Z,59.45
2019-01-25T06:09:19.467Z,65.05
2019-01-25T06:11:46.781Z,60.12
2019-01-25T06:14:13.937Z,58.30
2019-01-25T06:16:41.187Z,65.78
2019-01-25T06:19:08.308Z,57.67
2019-01-25T06:21:35.264Z,66.15
2019-01-25T06:24:02.367Z,58.45
2019-01-25T06:26:29.405Z,62.25
2019-01-25T06:28:56.984Z,58.50
2019-01-25T06:31:24.501Z,65.87
2019-01-25T06:33:51.835Z,60.95
2019-01-25T06:36:19.631Z,64.37
2019-01-25T06:38:46.971Z,61.13
2019-01-25T06:41:14.560Z,62.15
2019-01-25T06:43:42.023Z,66.82
2019-01-25T06:46:09.341Z,65.97
2019-01-25T06:48:36.295Z,65.97
2019-01-25T06:51:04.987Z,69.22
2019-01-25T06:53:32.667Z,65.95
2019-01-25T06:55:59.655Z,68.17
2019-01-25T06:58:41.797Z,72.55
2019-01-25T07:01:17.408Z,64.58
2019-01-25T07:03:44.534Z,69.05
2019-01-25T07:06:12.191Z,69.30
2019-01-25T07:08:39.482Z,63.75
2019-01-25T07:11:06.960Z,64.10
2019-01-25T07:13:34.400Z,67.32
2019-01-25T07:16:02.109Z,69.45
2019-01-25T07:18:29.431Z,64.40
2019-01-25T07:20:56.516Z,66.00
2019-01-25T07:23:23.766Z,66.37
2019-01-25T07:25:51.038Z,65.80
2019-01-25T07:28:18.949Z,63.35
2019-01-25T07:30:46.655Z,72.42
2019-01-25T07:33:14.149Z,63.17
2019-01-25T07:35:41.529Z,62.43
2019-01-25T07:38:09.334Z,64.25
2019-01-25T07:40:36.329Z,68.42
2019-01-25T07:43:03.722Z,67.32
2019-01-25T07:45:31.662Z,71.72
2019-01-25T07:47:59.319Z,64.05
2019-01-25T07:50:27.247Z,67.15
2019-01-25T07:52:54.401Z,62.43
2019-01-25T07:55:22.131Z,67.22
2019-01-25T07:57:49.770Z,67.25
2019-01-25T08:00:17.099Z,67.35
2019-01-25T08:02:44.850Z,69.90
2019-01-25T08:05:12.481Z,66.92
2019-01-25T08:07:40.468Z,67.50
2019-01-25T08:10:10.177Z,69.27
2019-01-25T08:12:37.577Z,70.72
2019-01-25T08:15:07.411Z,69.30
2019-01-25T08:17:34.964Z,65.87
2019-01-25T08:20:02.128Z,66.17
2019-01-25T08:22:29.331Z,67.42
2019-01-25T08:24:56.679Z,68.12
2019-01-25T08:27:24.123Z,70.45
2019-01-25T08:29:51.435Z,69.82
2019-01-25T08:32:19.012Z,73.22
2019-01-25T08:34:45.971Z,66.07
2019-01-25T08:37:12.889Z,67.22
2019-01-25T08:39:40.461Z,73.00
2019-01-25T08:42:07.351Z,67.70
2019-01-25T08:44:34.791Z,66.67
2019-01-25T08:47:02.193Z,73.28
2019-01-25T08:49:29.573Z,69.30
2019-01-25T08:51:56.957Z,74.15
2019-01-25T08:54:25.481Z,69.00
2019-01-25T08:56:53.183Z,70.22
2019-01-25T08:59:20.830Z,69.17
2019-01-25T09:01:48.084Z,70.28
2019-01-25T09:04:15.360Z,70.83
2019-01-25T09:06:43.580Z,69.60
2019-01-25T09:09:11.691Z,72.08
2019-01-25T09:11:39.230Z,67.22
2019-01-25T09:14:06.588Z,69.97
2019-01-25T09:16:34.190Z,67.97
2019-01-25T09:19:01.423Z,70.85
2019-01-25T09:21:28.804Z,75.57
2019-01-25T09:23:57.093Z,74.30
2019-01-25T09:26:26.223Z,73.00
2019-01-25T09:28:53.335Z,69.85
2019-01-25T09:31:20.727Z,66.97
2019-01-25T09:33:48.505Z,68.70
2019-01-25T09:36:28.851Z,68.40
2019-01-25T09:38:56.018Z,73.45
2019-01-25T09:41:23.442Z,74.37
2019-01-25T09:43:50.810Z,70.80
2019-01-25T09:46:18.103Z,67.15
2019-01-25T09:48:45.059Z,74.47
2019-01-25T09:51:12.130Z,71.17
2019-01-25T09:53:39.204Z,69.67
2019-01-25T09:56:06.647Z,69.82
2019-01-25T09:58:36.596Z,70.37
2019-01-25T10:01:07.003Z,71.65
2019-01-25T10:03:34.203Z,65.78
2019-01-25T10:06:01.910Z,73.42
2019-01-25T10:08:29.758Z,74.90
2019-01-25T10:10:57.176Z,72.37
2019-01-25T10:13:24.251Z,69.77
2019-01-25T10:15:51.404Z,72.67
2019-01-25T10:18:18.663Z,70.78
2019-01-25T10:20:46.069Z,69.42
2019-01-25T10:23:14.361Z,61.60
2019-01-25T10:25:41.726Z,69.30
2019-01-25T10:28:09.426Z,63.05
2019-01-25T10:30:36.740Z,65.57
2019-01-25T10:33:04.249Z,69.87
2019-01-25T10:35:43.803Z,73.78
2019-01-25T10:38:11.279Z,64.72
2019-01-25T10:40:39.033Z,62.67
2019-01-25T10:43:06.473Z,66.72
2019-01-25T10:45:35.847Z,68.17
2019-01-25T10:48:03.608Z,71.02
2019-01-25T10:50:30.935Z,70.10
2019-01-25T10:52:57.969Z,68.97
2019-01-25T10:55:25.431Z,65.45
2019-01-25T10:57:53.220Z,67.97
2019-01-25T11:00:20.999Z,68.05
2019-01-25T11:02:48.303Z,64.53
2019-01-25T11:05:18.511Z,64.03
2019-01-25T11:07:46.163Z,62.90
2019-01-25T11:10:13.354Z,73.67
2019-01-25T11:12:41.282Z,69.07
2019-01-25T11:15:10.691Z,61.98
2019-01-25T11:17:38.363Z,65.32
2019-01-25T11:20:09.917Z,67.90
2019-01-25T11:22:37.791Z,62.90
2019-01-25T11:25:06.664Z,62.35
2019-01-25T11:27:33.890Z,61.37
2019-01-25T11:30:02.109Z,60.33
2019-01-25T11:32:29.327Z,63.02
2019-01-25T11:34:56.931Z,61.85
2019-01-25T11:37:24.509Z,61.15
2019-01-25T11:39:51.571Z,63.63
2019-01-25T11:42:18.647Z,64.90
2019-01-25T11:44:45.816Z,58.55
2019-01-25T11:47:13.089Z,62.90
2019-01-25T11:49:40.597Z,57.27
2019-01-25T11:52:07.656Z,61.48
2019-01-25T11:54:35.229Z,57.37
2019-01-25T11:57:03.134Z,59.93
2019-01-25T11:59:30.681Z,58.90
2019-01-25T12:01:58.143Z,55.25
2019-01-25T12:04:25.649Z,58.00
2019-01-25T12:06:53.471Z,54.63
2019-01-25T12:09:20.826Z,56.73
2019-01-25T12:11:48.415Z,57.33
2019-01-25T12:14:15.527Z,55.57
2019-01-25T12:16:43.109Z,54.13
2019-01-25T12:19:10.850Z,54.43
2019-01-25T12:21:38.081Z,55.65
2019-01-25T12:24:05.268Z,54.83
2019-01-25T12:26:32.972Z,50.73
2019-01-25T12:29:00.115Z,46.43
2019-01-25T12:31:28.149Z,47.73
2019-01-25T12:33:55.255Z,42.17
2019-01-25T12:36:22.379Z,42.58
2019-01-25T12:38:49.658Z,42.40
2019-01-25T12:41:16.994Z,41.73
2019-01-25T12:43:44.094Z,40.20
2019-01-25T12:46:12.039Z,40.00
2019-01-25T12:48:39.419Z,36.15
2019-01-25T12:51:15.543Z,35.90
2019-01-25T12:53:43.324Z,40.12
2019-01-25T12:56:10.815Z,34.10
2019-01-25T12:58:38.622Z,37.13
2019-01-25T13:01:06.304Z,36.93
2019-01-25T13:03:34.019Z,32.08
2019-01-25T13:06:01.215Z,33.33
2019-01-25T13:08:29.023Z,29.90
2019-01-25T13:10:57.069Z,32.17
2019-01-25T13:13:31.361Z,33.73
2019-01-25T13:15:54.100Z,33.10
2019-01-25T13:18:21.133Z,32.63
2019-01-25T13:20:49.179Z,32.53
2019-01-25T13:23:16.896Z,26.25
2019-01-25T13:25:47.208Z,29.05
2019-01-25T13:28:14.971Z,27.22
2019-01-25T13:30:42.049Z,29.10
2019-01-25T13:33:09.256Z,26.60
2019-01-25T13:35:36.995Z,26.15
2019-01-25T13:38:04.566Z,25.40
2019-01-25T13:40:32.254Z,22.58
2019-01-25T13:42:59.190Z,20.37
2019-01-25T13:45:26.551Z,19.85
2019-01-25T13:47:53.694Z,15.80
2019-01-25T13:50:23.070Z,12.57
2019-01-25T13:52:50.831Z,12.60
2019-01-25T13:55:18.753Z,12.43
2019-01-25T13:57:45.958Z,14.30
2019-01-25T14:00:24.375Z,19.27
2019-01-25T14:02:51.770Z,18.50
2019-01-25T14:05:19.587Z,17.32
2019-01-25T14:07:46.943Z,18.30
2019-01-25T14:10:17.912Z,17.20
2019-01-25T14:12:45.339Z,21.60
2019-01-25T14:15:12.717Z,17.52
2019-01-25T14:17:40.180Z,18.37
2019-01-25T14:20:11.675Z,19.82
2019-01-25T14:22:38.774Z,18.77
2019-01-25T14:25:07.038Z,17.73
2019-01-25T14:27:34.440Z,23.27
2019-01-25T14:30:01.566Z,21.68
2019-01-25T14:32:30.739Z,26.25
2019-01-25T14:34:58.150Z,41.00
2019-01-25T14:37:25.293Z,37.00
2019-01-25T14:39:52.842Z,32.48
2019-01-25T14:42:20.278Z,32.85
2019-01-25T14:44:47.769Z,32.33
2019-01-25T14:47:15.008Z,33.33
2019-01-25T14:49:42.622Z,33.90
2019-01-25T14:52:09.662Z,33.98
2019-01-25T14:54:37.086Z,33.60
2019-01-25T14:57:05.108Z,34.45
2019-01-25T14:59:32.764Z,31.90
2019-01-25T15:02:00.356Z,30.37
2019-01-25T15:04:27.694Z,31.40
2019-01-25T15:06:55.861Z,30.57
2019-01-25T15:09:22.808Z,31.62
2019-01-25T15:11:49.853Z,30.50
2019-01-25T15:14:17.362Z,28.40
2019-01-25T15:16:57.439Z,29.63
2019-01-25T15:19:24.706Z,28.55
2019-01-25T15:21:52.278Z,32.00
2019-01-25T15:24:19.852Z,30.77
2019-01-25T15:26:47.312Z,28.62
2019-01-25T15:29:14.277Z,31.55
2019-01-25T15:31:41.393Z,28.50
2019-01-25T15:34:08.476Z,38.53
2019-01-25T15:36:36.061Z,31.48
2019-01-25T15:39:07.143Z,29.40
2019-01-25T15:41:34.679Z,28.32
2019-01-25T15:44:09.830Z,29.60
2019-01-25T15:46:32.955Z,30.92
2019-01-25T15:49:00.497Z,27.67
2019-01-25T15:51:27.547Z,31.75
2019-01-25T15:53:54.788Z,30.60
2019-01-25T15:56:22.306Z,30.90
2019-01-25T15:58:49.667Z,27.80
2019-01-25T16:01:17.236Z,29.57
2019-01-25T16:03:46.173Z,30.80
2019-01-25T16:06:13.541Z,29.40
2019-01-25T16:08:41.175Z,28.10
2019-01-25T16:11:08.431Z,31.17
2019-01-25T16:13:35.819Z,31.77
2019-01-25T16:16:03.304Z,27.57
2019-01-25T16:18:31.076Z,25.82
2019-01-25T16:20:58.627Z,25.45
2019-01-25T16:23:25.820Z,26.70
2019-01-25T16:25:53.095Z,25.30
2019-01-25T16:28:20.795Z,24.98
2019-01-25T16:30:48.180Z,25.73
2019-01-25T16:33:15.119Z,29.90
2019-01-25T16:35:42.683Z,35.53
2019-01-25T16:38:10.223Z,41.42
2019-01-25T16:40:38.287Z,40.13
2019-01-25T16:43:07.827Z,42.27
2019-01-25T16:45:40.479Z,41.53
2019-01-25T16:48:07.699Z,43.68
2019-01-25T16:50:35.920Z,45.17
2019-01-25T16:53:03.775Z,42.05
2019-01-25T16:55:31.091Z,44.18
2019-01-25T16:57:58.703Z,45.57
2019-01-25T17:00:34.444Z,45.43
2019-01-25T17:03:02.031Z,42.13
2019-01-25T17:05:29.459Z,42.53
2019-01-25T17:07:56.781Z,49.42
2019-01-25T17:10:24.678Z,47.62
2019-01-25T17:12:52.605Z,46.15
2019-01-25T17:15:19.879Z,47.33
2019-01-25T17:17:47.282Z,45.38
2019-01-25T17:20:20.017Z,47.60
2019-01-25T17:22:45.078Z,47.98
2019-01-25T17:25:12.571Z,44.00
2019-01-25T17:27:40.255Z,44.58
2019-01-25T17:30:14.507Z,45.52
2019-01-25T17:32:42.279Z,47.85
2019-01-25T17:35:09.332Z,44.98
2019-01-25T17:37:36.944Z,46.03
2019-01-25T17:40:06.907Z,45.75
2019-01-25T17:42:34.324Z,44.93
2019-01-25T17:45:21.629Z,48.45
2019-01-25T17:47:49.244Z,45.20
2019-01-25T17:50:16.640Z,43.20
2019-01-25T17:52:43.938Z,47.60
2019-01-25T17:55:11.470Z,46.90
2019-01-25T17:57:38.738Z,62.23
2019-01-25T18:00:15.742Z,48.78
2019-01-25T18:02:43.172Z,45.05
2019-01-25T18:05:10.336Z,44.00
2019-01-25T18:07:38.153Z,44.75
2019-01-25T18:10:07.708Z,46.55
2019-01-25T18:12:35.143Z,45.73
2019-01-25T18:15:02.559Z,46.98
2019-01-25T18:17:34.254Z,46.40
2019-01-25T18:20:01.459Z,46.45
2019-01-25T18:22:28.775Z,47.70
2019-01-25T18:24:56.975Z,48.45
2019-01-25T18:27:24.002Z,44.48
2019-01-25T18:29:56.170Z,46.25
2019-01-25T18:32:23.717Z,46.28
2019-01-25T18:34:51.422Z,44.58
2019-01-25T18:37:18.976Z,49.85
2019-01-25T18:39:46.145Z,46.00
2019-01-25T18:42:13.448Z,43.95
2019-01-25T18:44:41.202Z,47.45
2019-01-25T18:47:09.207Z,43.15
2019-01-25T18:49:36.531Z,42.50
2019-01-25T18:52:04.083Z,41.98
2019-01-25T18:54:31.698Z,39.35
2019-01-25T18:57:02.198Z,43.33
2019-01-25T18:59:29.904Z,43.78
2019-01-25T19:01:59.183Z,44.42
2019-01-25T19:04:26.684Z,42.65
2019-01-25T19:06:53.863Z,42.83
2019-01-25T19:09:21.011Z,40.60
2019-01-25T19:11:48.391Z,40.20
2019-01-25T19:14:15.883Z,42.95
2019-01-25T19:16:43.435Z,41.37
2019-01-25T19:19:10.591Z,39.83
2019-01-25T19:21:38.369Z,39.08
2019-01-25T19:24:05.508Z,38.83
2019-01-25T19:26:33.311Z,40.30
2019-01-25T19:29:01.166Z,40.80
2019-01-25T19:31:30.617Z,42.10
2019-01-25T19:33:58.555Z,36.77
2019-01-25T19:36:26.339Z,39.53
2019-01-25T19:38:53.832Z,41.92
2019-01-25T19:41:21.538Z,37.08
2019-01-25T19:43:49.111Z,44.42
2019-01-25T19:46:17.157Z,38.83
2019-01-25T19:48:44.104Z,39.48
2019-01-25T19:51:11.659Z,42.27
2019-01-25T19:53:39.166Z,43.13
2019-01-25T19:56:07.351Z,40.45
2019-01-25T19:58:34.843Z,35.63
2019-01-25T20:01:02.619Z,36.35
2019-01-25T20:03:31.111Z,38.10
2019-01-25T20:05:58.575Z,41.13
2019-01-25T20:08:26.091Z,38.58
2019-01-25T20:10:55.020Z,36.93
2019-01-25T20:13:22.848Z,37.83
2019-01-25T20:15:50.094Z,37.65
2019-01-25T20:18:17.678Z,40.00
2019-01-25T20:20:45.114Z,39.15
2019-01-25T20:23:12.260Z,39.45
2019-01-25T20:25:40.029Z,38.08
2019-01-25T20:28:07.975Z,43.63
2019-01-25T20:30:35.455Z,42.48
2019-01-25T20:33:02.960Z,43.13
2019-01-25T20:35:32.351Z,40.40
2019-01-25T20:37:59.451Z,37.70
2019-01-25T20:40:26.628Z,55.28
2019-01-25T20:42:54.358Z,37.93
2019-01-25T20:45:27.195Z,37.50
2019-01-25T20:47:54.740Z,40.00
2019-01-25T20:50:24.094Z,44.40
2019-01-25T20:52:51.513Z,36.55
2019-01-25T20:55:19.167Z,39.55
2019-01-25T20:57:47.151Z,42.75
2019-01-25T21:00:19.847Z,40.38
2019-01-25T21:02:47.535Z,44.15
2019-01-25T21:05:14.756Z,41.95
2019-01-25T21:07:42.175Z,45.85
2019-01-25T21:10:11.613Z,46.77
2019-01-25T21:12:38.559Z,38.08
2019-01-25T21:15:07.654Z,43.52
2019-01-25T21:17:35.225Z,44.45
2019-01-25T21:20:03.505Z,37.70
2019-01-25T21:22:30.959Z,40.65
2019-01-25T21:24:57.968Z,39.83
2019-01-25T21:27:25.015Z,39.00
2019-01-25T21:29:52.048Z,39.35
2019-01-25T21:32:19.259Z,42.38
2019-01-25T21:34:46.731Z,40.85
2019-01-25T21:37:14.071Z,43.17
2019-01-25T21:39:41.518Z,46.08
2019-01-25T21:42:08.967Z,37.85
2019-01-25T21:44:36.297Z,40.58
2019-01-25T21:47:03.766Z,34.70
2019-01-25T21:49:30.875Z,37.63
2019-01-25T21:51:58.244Z,38.33
2019-01-25T21:54:25.638Z,36.13
2019-01-25T21:56:52.999Z,41.17
2019-01-25T21:59:21.263Z,38.13
2019-01-25T22:01:48.955Z,35.98
2019-01-25T22:04:16.233Z,34.78
2019-01-25T22:06:43.487Z,35.45
2019-01-25T22:09:11.635Z,36.83
2019-01-25T22:11:39.221Z,35.65
2019-01-25T22:14:06.434Z,37.53
2019-01-25T22:16:33.605Z,61.40
2019-01-25T22:19:01.248Z,39.00
2019-01-25T22:21:28.516Z,38.92
2019-01-25T22:23:55.663Z,32.78
2019-01-25T22:26:22.836Z,33.90
2019-01-25T22:28:50.354Z,32.33
2019-01-25T22:31:17.512Z,36.90
2019-01-25T22:33:44.656Z,31.68
2019-01-25T22:36:11.741Z,32.65
2019-01-25T22:38:39.086Z,35.83
2019-01-25T22:41:06.463Z,29.98
2019-01-25T22:43:33.478Z,31.55
2019-01-25T22:46:01.351Z,31.23
2019-01-25T22:48:28.573Z,32.40
2019-01-25T22:50:55.730Z,30.20
2019-01-25T22:53:22.856Z,30.60
2019-01-25T22:55:50.467Z,26.95
2019-01-25T22:58:17.870Z,28.27
2019-01-25T23:01:07.838Z,30.05
2019-01-25T23:03:38.492Z,29.32
2019-01-25T23:06:25.294Z,29.35
2019-01-25T23:08:53.034Z,29.63
2019-01-25T23:11:20.599Z,32.73
2019-01-25T23:13:47.527Z,31.20
2019-01-25T23:16:14.652Z,28.80
2019-01-25T23:18:41.923Z,29.57
2019-01-25T23:21:09.275Z,32.93
2019-01-25T23:23:36.460Z,28.90
2019-01-25T23:26:04.580Z,30.43
2019-01-25T23:28:32.820Z,32.53
2019-01-25T23:31:01.603Z,40.10
2019-01-25T23:33:29.510Z,30.02
2019-01-25T23:35:56.494Z,27.65
2019-01-25T23:38:23.679Z,27.82
2019-01-25T23:40:51.183Z,28.87
2019-01-25T23:43:18.321Z,26.82
2019-01-25T23:45:45.434Z,29.23
2019-01-25T23:48:12.827Z,27.35
2019-01-25T23:50:39.877Z,25.45
2019-01-25T23:53:07.219Z,28.35
2019-01-25T23:55:34.503Z,30.12
2019-01-25T23:58:02.035Z,29.55
